KG-0007 weather

Tokmok Airport
Tokmok, Chuy Region, Kyrgyzstan

Public forecast

Using degrees Celsius for public forecast. Weather courtesy of forecast.io.

METAR (pilot weather report)

Closest report is Manas International Airport, 40.2 nm (74.5 km) WNW. Retrieved 2019/03/22 06:30 UTC (18 minutes ago):

UCFM 220630Z 10002MPS CAVOK 15/02 Q1020 R08/09//95 NOSIG

TAF (pilot weather forecast)

Closest forecast is Manas International Airport, 40.2 nm (74.5 km) WNW. Retrieved 2019/03/22 06:00 UTC (48 minutes ago):

TAF UCFM 220445Z 2206/2306 32003G08MPS 6000 SCT040CB TEMPO 2206/2212 3000 FU BECMG 2212/2214 12003G08MPS 3000 BR TEMPO 2212/2218 1500 BR FU FEW005 TEMPO 2218/2224 1500 BR FU FEW005